createdAt,value
2022-09-27T00:01:21.370Z,6.05
2022-09-27T00:04:01.709Z,5.47
2022-09-27T00:06:39.910Z,5.62
2022-09-27T00:09:11.839Z,4.58
2022-09-27T00:11:45.945Z,5.87
2022-09-27T00:14:20.098Z,6.40
2022-09-27T00:16:53.253Z,3.60
2022-09-27T00:19:27.258Z,6.28
2022-09-27T00:22:01.839Z,8.60
2022-09-27T00:24:34.800Z,4.90
2022-09-27T00:27:07.916Z,4.78
2022-09-27T00:29:40.776Z,5.03
2022-09-27T00:32:15.365Z,4.90
2022-09-27T00:37:21.465Z,7.08
2022-09-27T00:39:54.450Z,7.33
2022-09-27T00:42:27.555Z,5.28
2022-09-27T00:45:07.878Z,4.37
2022-09-27T00:47:57.738Z,5.83
2022-09-27T00:50:43.842Z,8.13
2022-09-27T00:53:30.659Z,4.55
2022-09-27T00:56:08.407Z,6.40
2022-09-27T00:58:46.040Z,5.33
2022-09-27T01:01:20.271Z,6.42
2022-09-27T01:04:17.013Z,6.67
2022-09-27T01:06:50.201Z,8.38
2022-09-27T01:09:24.005Z,6.75
2022-09-27T01:12:25.297Z,7.92
2022-09-27T01:15:31.489Z,6.37
2022-09-27T01:18:31.337Z,5.35
2022-09-27T01:21:33.150Z,7.30
2022-09-27T01:24:49.945Z,5.80
2022-09-27T01:27:39.286Z,6.08
2022-09-27T01:30:29.420Z,10.82
2022-09-27T01:33:13.036Z,9.00
2022-09-27T01:36:08.215Z,6.35
2022-09-27T01:38:46.841Z,11.10
2022-09-27T01:41:30.731Z,6.05
2022-09-27T01:44:16.255Z,8.08
2022-09-27T01:46:57.300Z,8.53
2022-09-27T01:50:03.076Z,9.15
2022-09-27T01:52:44.858Z,8.73
2022-09-27T01:55:20.516Z,7.37
2022-09-27T01:58:02.636Z,7.78
2022-09-27T02:00:38.144Z,10.05
2022-09-27T02:03:18.540Z,7.53
2022-09-27T02:06:03.850Z,8.93
2022-09-27T02:09:13.741Z,9.38
2022-09-27T02:11:56.053Z,9.50
2022-09-27T02:14:32.033Z,10.53
2022-09-27T02:17:20.322Z,8.03
2022-09-27T02:20:12.080Z,9.50
2022-09-27T02:23:16.609Z,7.95
2022-09-27T02:26:08.455Z,8.50
2022-09-27T02:28:52.851Z,12.45
2022-09-27T02:31:27.689Z,10.30
2022-09-27T02:34:15.354Z,10.68
2022-09-27T02:36:48.866Z,10.32
2022-09-27T02:39:22.891Z,7.72
2022-09-27T02:41:59.739Z,8.60
2022-09-27T02:44:32.887Z,6.72
2022-09-27T02:47:47.651Z,6.42
2022-09-27T02:50:51.859Z,7.22
2022-09-27T02:53:36.817Z,9.60
2022-09-27T02:56:21.951Z,8.38
2022-09-27T02:59:21.816Z,8.93
2022-09-27T03:02:13.993Z,8.00
2022-09-27T03:05:05.057Z,10.35
2022-09-27T03:07:38.970Z,10.38
2022-09-27T03:10:22.022Z,8.97
2022-09-27T03:12:56.412Z,7.33
2022-09-27T03:15:29.415Z,8.33
2022-09-27T03:18:08.792Z,6.78
2022-09-27T03:20:47.501Z,11.53
2022-09-27T03:23:22.692Z,8.65
2022-09-27T03:25:57.623Z,9.83
2022-09-27T03:28:31.628Z,13.88
2022-09-27T03:31:05.417Z,8.43
2022-09-27T03:33:56.633Z,10.88
2022-09-27T03:36:29.685Z,10.53
2022-09-27T03:39:03.238Z,13.48
2022-09-27T03:41:36.445Z,15.50
2022-09-27T03:44:09.930Z,13.93
2022-09-27T03:46:43.308Z,10.93
2022-09-27T03:49:16.690Z,10.78
2022-09-27T03:51:49.991Z,13.70
2022-09-27T03:54:23.198Z,13.30
2022-09-27T03:56:56.666Z,11.73
2022-09-27T03:59:30.413Z,14.05
2022-09-27T04:02:05.409Z,17.85
2022-09-27T04:04:40.095Z,17.55
2022-09-27T04:07:13.213Z,17.45
2022-09-27T04:09:47.183Z,19.55
2022-09-27T04:12:20.711Z,23.95
2022-09-27T04:14:55.491Z,15.38
2022-09-27T04:17:46.117Z,13.05
2022-09-27T04:20:31.135Z,13.53
2022-09-27T04:23:05.199Z,13.53
2022-09-27T04:25:40.140Z,15.68
2022-09-27T04:28:24.155Z,15.68
2022-09-27T04:30:58.044Z,17.50
2022-09-27T04:33:39.486Z,15.23
2022-09-27T04:36:29.754Z,10.38
2022-09-27T04:39:07.958Z,12.50
2022-09-27T04:41:42.510Z,13.38
2022-09-27T04:44:15.491Z,10.63
2022-09-27T04:46:50.517Z,9.35
2022-09-27T04:51:57.505Z,8.90
2022-09-27T04:54:31.026Z,8.08
2022-09-27T04:57:05.886Z,9.30
2022-09-27T04:59:40.858Z,12.58
2022-09-27T05:02:14.354Z,13.40
2022-09-27T05:05:06.939Z,13.08
2022-09-27T05:07:42.733Z,15.40
2022-09-27T05:10:17.896Z,19.37
2022-09-27T05:12:51.912Z,21.77
2022-09-27T05:15:25.212Z,18.20
2022-09-27T05:18:18.338Z,25.10
2022-09-27T05:21:02.109Z,19.85
2022-09-27T05:23:41.951Z,21.50
2022-09-27T05:26:14.662Z,24.37
2022-09-27T05:28:48.460Z,23.98
2022-09-27T05:31:21.827Z,24.67
2022-09-27T05:33:55.974Z,25.08
2022-09-27T05:36:38.047Z,23.98
2022-09-27T05:39:11.331Z,31.10
2022-09-27T05:41:44.935Z,25.02
2022-09-27T05:44:19.285Z,15.53
2022-09-27T05:46:54.147Z,13.68
2022-09-27T05:49:28.038Z,8.90
2022-09-27T05:52:01.518Z,12.73
2022-09-27T05:54:35.771Z,10.98
2022-09-27T05:57:09.427Z,8.73
2022-09-27T05:59:50.311Z,10.23
2022-09-27T06:02:26.795Z,8.63
2022-09-27T06:05:17.981Z,15.18
2022-09-27T06:08:05.315Z,7.15
2022-09-27T06:10:41.813Z,9.88
2022-09-27T06:13:17.068Z,7.85
2022-09-27T06:15:51.896Z,8.25
2022-09-27T06:18:25.589Z,7.78
2022-09-27T06:21:01.101Z,9.30
2022-09-27T06:23:35.081Z,9.25
2022-09-27T06:26:11.356Z,10.08
2022-09-27T06:28:50.533Z,11.22
2022-09-27T06:31:24.017Z,9.38
2022-09-27T06:34:10.858Z,11.70
2022-09-27T06:36:46.165Z,10.57
2022-09-27T06:39:20.743Z,12.10
2022-09-27T06:42:00.402Z,11.15
2022-09-27T06:44:51.176Z,10.88
2022-09-27T06:47:42.177Z,13.62
2022-09-27T06:50:22.674Z,17.10
2022-09-27T06:53:01.201Z,13.10
2022-09-27T06:55:34.620Z,11.40
2022-09-27T06:58:28.564Z,10.03
2022-09-27T07:01:20.747Z,11.12
2022-09-27T07:04:13.578Z,14.85
2022-09-27T07:06:48.877Z,8.78
2022-09-27T07:09:29.188Z,8.60
2022-09-27T07:12:02.684Z,7.40
2022-09-27T07:14:37.165Z,12.05
2022-09-27T07:17:11.321Z,8.85
2022-09-27T07:19:46.435Z,10.70
2022-09-27T07:22:19.520Z,9.00
2022-09-27T07:24:54.188Z,6.62
2022-09-27T07:27:29.017Z,8.20
2022-09-27T07:30:02.245Z,9.38
2022-09-27T07:32:37.115Z,9.28
2022-09-27T07:35:14.885Z,9.73
2022-09-27T07:37:49.055Z,8.68
2022-09-27T07:40:22.546Z,10.63
2022-09-27T07:43:01.839Z,12.47
2022-09-27T07:45:35.387Z,7.78
2022-09-27T07:48:17.727Z,7.30
2022-09-27T07:50:53.636Z,8.28
2022-09-27T07:53:28.505Z,9.50
2022-09-27T07:56:07.040Z,6.25
2022-09-27T07:58:40.473Z,10.13
2022-09-27T08:01:14.522Z,6.75
2022-09-27T08:03:47.738Z,6.95
2022-09-27T08:06:21.599Z,8.50
2022-09-27T08:08:55.231Z,8.28
2022-09-27T08:11:28.560Z,9.68
2022-09-27T08:14:04.560Z,8.90
2022-09-27T08:16:39.387Z,8.18
2022-09-27T08:19:23.580Z,6.78
2022-09-27T08:22:00.922Z,4.30
2022-09-27T08:24:35.704Z,6.50
2022-09-27T08:27:12.219Z,6.72
2022-09-27T08:29:56.384Z,5.17
2022-09-27T08:32:31.078Z,6.80
2022-09-27T08:35:07.753Z,6.00
2022-09-27T08:37:40.867Z,11.18
2022-09-27T08:40:17.875Z,7.57
2022-09-27T08:43:17.331Z,4.33
2022-09-27T08:46:22.269Z,8.18
2022-09-27T08:49:00.250Z,5.35
2022-09-27T08:51:34.399Z,7.50
2022-09-27T08:56:50.613Z,8.73
2022-09-27T08:59:27.331Z,5.00
2022-09-27T09:02:00.230Z,5.67
2022-09-27T09:04:41.346Z,5.97
2022-09-27T09:08:04.428Z,6.85
2022-09-27T09:11:05.616Z,7.42
2022-09-27T09:13:55.976Z,16.80
2022-09-27T09:16:48.725Z,12.63
2022-09-27T09:19:49.209Z,8.38
2022-09-27T09:22:53.180Z,10.08
2022-09-27T09:25:32.614Z,7.65
2022-09-27T09:28:30.040Z,7.08
2022-09-27T09:31:10.153Z,6.47
2022-09-27T09:34:03.997Z,7.22
2022-09-27T09:36:43.247Z,7.60
2022-09-27T09:39:23.913Z,6.40
2022-09-27T09:42:04.639Z,7.45
2022-09-27T09:45:05.870Z,7.37
2022-09-27T09:48:02.296Z,7.15
2022-09-27T09:50:45.586Z,10.10
2022-09-27T09:56:25.168Z,7.45
2022-09-27T09:59:04.817Z,10.65
2022-09-27T10:01:44.426Z,5.37
2022-09-27T10:04:24.539Z,9.88
2022-09-27T10:07:00.358Z,4.87
2022-09-27T10:09:35.291Z,8.00
2022-09-27T10:12:13.666Z,7.25
2022-09-27T10:14:50.439Z,6.08
2022-09-27T10:17:27.668Z,7.85
2022-09-27T10:20:03.606Z,8.80
2022-09-27T10:22:49.606Z,9.13
2022-09-27T10:25:24.837Z,6.17
2022-09-27T10:28:00.352Z,5.08
2022-09-27T10:30:38.728Z,4.05
2022-09-27T10:33:20.760Z,6.35
2022-09-27T10:35:55.283Z,5.67
2022-09-27T10:38:37.356Z,6.83
2022-09-27T10:41:39.912Z,3.83
2022-09-27T10:47:16.729Z,9.43
2022-09-27T10:49:52.931Z,5.78
2022-09-27T10:52:38.774Z,5.25
2022-09-27T10:55:27.095Z,5.97
2022-09-27T10:58:00.799Z,5.97
2022-09-27T11:00:36.483Z,4.33
2022-09-27T11:03:16.563Z,7.40
2022-09-27T11:05:50.743Z,10.65
2022-09-27T11:08:33.920Z,9.67
2022-09-27T11:11:30.320Z,8.43
2022-09-27T11:14:19.522Z,5.15
2022-09-27T11:17:20.488Z,6.97
2022-09-27T11:20:11.427Z,8.10
2022-09-27T11:23:25.388Z,11.68
2022-09-27T11:26:09.824Z,7.37
2022-09-27T11:29:03.206Z,10.58
2022-09-27T11:31:57.231Z,5.95
2022-09-27T11:34:53.575Z,8.08
2022-09-27T11:37:52.145Z,5.78
2022-09-27T11:40:55.287Z,4.60
2022-09-27T11:43:48.141Z,7.05
2022-09-27T11:46:41.344Z,5.30
2022-09-27T11:50:02.760Z,4.35
2022-09-27T11:52:52.718Z,4.45
2022-09-27T11:55:49.698Z,11.35
2022-09-27T11:58:51.072Z,15.90
2022-09-27T12:01:46.482Z,14.13
2022-09-27T12:04:40.498Z,5.45
2022-09-27T12:07:31.926Z,3.85
2022-09-27T12:10:14.066Z,10.05
2022-09-27T12:12:52.193Z,10.63
2022-09-27T12:15:36.025Z,5.42
2022-09-27T12:18:39.291Z,6.80
2022-09-27T12:21:14.796Z,5.17
2022-09-27T12:26:44.372Z,5.55
2022-09-27T12:29:34.303Z,5.62
2022-09-27T12:32:39.048Z,9.93
2022-09-27T12:35:31.001Z,7.95
2022-09-27T12:38:17.076Z,13.32
2022-09-27T12:40:56.828Z,11.05
2022-09-27T12:43:32.411Z,9.08
2022-09-27T12:47:01.771Z,9.90
2022-09-27T12:49:46.987Z,15.20
2022-09-27T12:52:25.727Z,8.00
2022-09-27T12:55:30.602Z,12.07
2022-09-27T12:58:32.292Z,5.83
2022-09-27T13:01:37.853Z,5.92
2022-09-27T13:04:34.367Z,4.40
2022-09-27T13:07:17.893Z,7.85
2022-09-27T13:10:13.055Z,8.58
2022-09-27T13:12:51.354Z,9.45
2022-09-27T13:15:36.696Z,9.33
2022-09-27T13:18:31.451Z,6.10
2022-09-27T13:23:46.054Z,5.15
2022-09-27T13:26:36.053Z,10.05
2022-09-27T13:29:27.063Z,9.58
2022-09-27T13:32:03.998Z,8.13
2022-09-27T13:34:52.082Z,13.00
2022-09-27T13:37:51.443Z,12.58
2022-09-27T13:40:43.554Z,7.28
2022-09-27T13:43:40.539Z,6.62
2022-09-27T13:46:21.629Z,6.40
2022-09-27T13:49:09.079Z,4.33
2022-09-27T13:52:23.067Z,5.80
2022-09-27T13:55:40.605Z,7.15
2022-09-27T13:58:22.085Z,7.03
2022-09-27T14:00:59.797Z,9.28
2022-09-27T14:03:50.487Z,9.73
2022-09-27T14:06:30.649Z,16.10
2022-09-27T14:09:09.054Z,10.38
2022-09-27T14:11:45.023Z,11.35
2022-09-27T14:14:23.123Z,8.78
2022-09-27T14:16:59.464Z,13.85
2022-09-27T14:19:33.868Z,6.90
2022-09-27T14:22:22.591Z,6.97
2022-09-27T14:24:58.474Z,6.92
2022-09-27T14:27:40.355Z,6.20
2022-09-27T14:30:21.836Z,7.70
2022-09-27T14:33:00.426Z,8.35
2022-09-27T14:36:06.300Z,7.85
2022-09-27T14:38:40.298Z,9.35
2022-09-27T14:41:16.234Z,7.95
2022-09-27T14:43:52.501Z,6.90
2022-09-27T14:46:30.226Z,10.25
2022-09-27T14:49:23.300Z,14.65
2022-09-27T14:51:59.202Z,7.67
2022-09-27T14:54:32.555Z,7.55
2022-09-27T14:57:05.534Z,11.48
2022-09-27T14:59:40.107Z,10.50
2022-09-27T15:02:17.447Z,9.65
2022-09-27T15:04:51.977Z,7.33
2022-09-27T15:07:26.056Z,8.13
2022-09-27T15:10:00.704Z,15.50
2022-09-27T15:12:35.737Z,7.00
2022-09-27T15:15:13.691Z,7.67
2022-09-27T15:17:48.451Z,8.50
2022-09-27T15:20:35.701Z,10.05
2022-09-27T15:23:08.692Z,14.30
2022-09-27T15:25:45.442Z,8.93
2022-09-27T15:28:20.639Z,13.32
2022-09-27T15:30:59.179Z,9.40
2022-09-27T15:33:34.972Z,10.05
2022-09-27T15:36:11.250Z,8.10
2022-09-27T15:38:49.354Z,12.00
2022-09-27T15:41:23.031Z,11.75
2022-09-27T15:43:55.802Z,8.60
2022-09-27T15:46:41.968Z,22.93
2022-09-27T15:49:24.888Z,13.45
2022-09-27T15:52:01.473Z,8.08
2022-09-27T15:54:36.686Z,9.38
2022-09-27T15:57:12.237Z,8.88
2022-09-27T15:59:45.453Z,4.42
2022-09-27T16:02:21.528Z,5.63
2022-09-27T16:04:54.436Z,5.78
2022-09-27T16:07:27.649Z,8.28
2022-09-27T16:10:01.317Z,4.17
2022-09-27T16:12:34.726Z,10.35
2022-09-27T16:15:08.911Z,10.20
2022-09-27T16:17:43.997Z,13.43
2022-09-27T16:20:25.084Z,6.58
2022-09-27T16:22:58.759Z,9.95
2022-09-27T16:25:31.445Z,8.67
2022-09-27T16:28:05.546Z,6.28
2022-09-27T16:30:38.407Z,9.33
2022-09-27T16:33:11.269Z,10.23
2022-09-27T16:35:44.287Z,6.83
2022-09-27T16:38:18.017Z,11.90
2022-09-27T16:40:50.780Z,7.58
2022-09-27T16:43:25.715Z,9.45
2022-09-27T16:46:09.804Z,6.85
2022-09-27T16:48:44.717Z,9.03
2022-09-27T16:51:39.311Z,7.50
2022-09-27T16:54:16.779Z,9.40
2022-09-27T16:56:55.067Z,7.12
2022-09-27T16:59:25.945Z,8.25
2022-09-27T17:01:59.814Z,8.23
2022-09-27T17:04:33.391Z,6.17
2022-09-27T17:07:11.382Z,6.90
2022-09-27T17:09:46.190Z,7.08
2022-09-27T17:12:19.136Z,5.75
2022-09-27T17:14:53.139Z,6.60
2022-09-27T17:17:26.626Z,8.03
2022-09-27T17:20:00.363Z,5.50
2022-09-27T17:22:34.200Z,5.95
2022-09-27T17:25:09.973Z,5.47
2022-09-27T17:27:44.106Z,5.42
2022-09-27T17:30:17.502Z,6.28
2022-09-27T17:32:52.384Z,7.17
2022-09-27T17:35:45.349Z,5.00
2022-09-27T17:38:18.817Z,7.60
2022-09-27T17:40:53.615Z,7.12
2022-09-27T17:43:34.833Z,6.25
2022-09-27T17:46:30.892Z,6.62
2022-09-27T17:49:21.893Z,6.03
2022-09-27T17:51:55.866Z,11.60
2022-09-27T17:57:03.354Z,6.15
2022-09-27T17:59:36.271Z,8.98
2022-09-27T18:02:10.705Z,9.65
2022-09-27T18:07:17.888Z,4.80
2022-09-27T18:12:26.393Z,5.65
2022-09-27T18:15:00.243Z,6.50
2022-09-27T18:17:34.524Z,5.45
2022-09-27T18:20:10.351Z,4.35
2022-09-27T18:22:43.450Z,6.35
2022-09-27T18:25:16.505Z,8.43
2022-09-27T18:27:53.057Z,8.60
2022-09-27T18:30:26.284Z,8.40
2022-09-27T18:32:59.617Z,6.92
2022-09-27T18:35:32.911Z,7.83
2022-09-27T18:38:06.203Z,6.25
2022-09-27T18:43:13.470Z,8.08
2022-09-27T18:45:46.323Z,4.75
2022-09-27T18:48:19.595Z,5.75
2022-09-27T18:50:52.619Z,9.05
2022-09-27T18:53:25.481Z,6.72
2022-09-27T18:56:00.856Z,5.95
2022-09-27T18:58:34.095Z,7.10
2022-09-27T19:01:10.197Z,11.97
2022-09-27T19:03:44.380Z,7.33
2022-09-27T19:06:22.001Z,4.92
2022-09-27T19:08:59.124Z,10.58
2022-09-27T19:11:34.074Z,9.78
2022-09-27T19:14:08.079Z,6.87
2022-09-27T19:16:41.887Z,8.50
2022-09-27T19:19:17.135Z,10.32
2022-09-27T19:21:50.943Z,10.60
2022-09-27T19:24:24.041Z,5.42
2022-09-27T19:26:57.703Z,9.20
2022-09-27T19:29:30.850Z,5.73
2022-09-27T19:32:03.954Z,8.28
2022-09-27T19:34:38.561Z,8.90
2022-09-27T19:37:11.997Z,7.35
2022-09-27T19:39:44.938Z,5.58
2022-09-27T19:42:17.982Z,6.00
2022-09-27T19:44:51.089Z,6.12
2022-09-27T19:47:23.895Z,8.68
2022-09-27T19:49:58.525Z,6.87
2022-09-27T19:52:31.873Z,9.40
2022-09-27T19:55:05.339Z,5.10
2022-09-27T19:57:38.232Z,5.92
2022-09-27T20:00:12.913Z,7.37
2022-09-27T20:02:46.036Z,6.53
2022-09-27T20:05:19.261Z,9.75
2022-09-27T20:07:53.611Z,10.55
2022-09-27T20:13:00.176Z,8.25
2022-09-27T20:15:33.060Z,10.00
2022-09-27T20:18:09.244Z,11.48
2022-09-27T20:20:41.845Z,13.53
2022-09-27T20:23:14.744Z,6.83
2022-09-27T20:25:48.467Z,9.68
2022-09-27T20:28:21.808Z,11.00
2022-09-27T20:33:42.313Z,11.28
2022-09-27T20:36:18.974Z,9.63
2022-09-27T20:38:58.250Z,12.50
2022-09-27T20:41:29.775Z,10.70
2022-09-27T20:44:06.054Z,14.25
2022-09-27T20:46:40.282Z,12.93
2022-09-27T20:49:17.095Z,11.70
2022-09-27T20:51:51.538Z,12.47
2022-09-27T20:56:56.249Z,11.78
2022-09-27T20:59:29.218Z,13.38
2022-09-27T21:02:02.143Z,12.68
2022-09-27T21:04:35.831Z,9.05
2022-09-27T21:07:08.947Z,12.40
2022-09-27T21:09:42.260Z,9.18
2022-09-27T21:12:16.594Z,10.28
2022-09-27T21:14:49.768Z,9.78
2022-09-27T21:17:22.639Z,12.35
2022-09-27T21:19:55.526Z,8.50
2022-09-27T21:22:28.515Z,8.38
2022-09-27T21:25:01.266Z,13.80
2022-09-27T21:27:34.639Z,10.03
2022-09-27T21:30:09.140Z,7.75
2022-09-27T21:32:43.118Z,9.65
2022-09-27T21:35:16.030Z,10.60
2022-09-27T21:37:48.876Z,10.28
2022-09-27T21:40:23.146Z,9.88
2022-09-27T21:45:29.727Z,13.62
2022-09-27T21:48:03.453Z,9.80
2022-09-27T21:50:36.434Z,13.88
2022-09-27T21:53:11.105Z,9.20
2022-09-27T21:55:44.385Z,9.30
2022-09-27T21:58:17.132Z,11.10
2022-09-27T22:00:50.085Z,7.45
2022-09-27T22:03:22.945Z,11.05
2022-09-27T22:05:55.711Z,6.67
2022-09-27T22:08:30.390Z,8.78
2022-09-27T22:11:03.887Z,9.25
2022-09-27T22:13:37.438Z,11.38
2022-09-27T22:16:13.498Z,11.45
2022-09-27T22:18:52.470Z,10.85
2022-09-27T22:21:29.277Z,10.78
2022-09-27T22:24:08.564Z,12.18
2022-09-27T22:26:43.410Z,9.95
2022-09-27T22:29:16.652Z,9.98
2022-09-27T22:31:50.005Z,12.20
2022-09-27T22:34:25.205Z,10.32
2022-09-27T22:37:01.051Z,13.85
2022-09-27T22:39:43.059Z,9.65
2022-09-27T22:42:15.883Z,9.55
2022-09-27T22:44:48.743Z,9.78
2022-09-27T22:47:24.007Z,10.23
2022-09-27T22:49:58.590Z,11.00
2022-09-27T22:52:31.406Z,12.15
2022-09-27T22:55:04.261Z,11.78
2022-09-27T22:57:37.331Z,10.35
2022-09-27T23:00:11.548Z,10.15
2022-09-27T23:02:45.223Z,9.30
2022-09-27T23:05:18.072Z,9.53
2022-09-27T23:07:52.673Z,10.38
2022-09-27T23:10:25.792Z,12.55
2022-09-27T23:12:59.354Z,8.05
2022-09-27T23:15:33.695Z,7.53
2022-09-27T23:18:06.752Z,10.58
2022-09-27T23:20:40.170Z,9.73
2022-09-27T23:23:14.979Z,8.10
2022-09-27T23:25:48.045Z,11.80
2022-09-27T23:28:20.821Z,8.43
2022-09-27T23:30:54.208Z,8.30
2022-09-27T23:33:29.311Z,11.65
2022-09-27T23:36:03.902Z,8.30
2022-09-27T23:38:39.677Z,19.52
2022-09-27T23:41:12.735Z,10.95
2022-09-27T23:43:47.333Z,11.17
2022-09-27T23:48:52.291Z,12.07
2022-09-27T23:51:25.255Z,11.40
2022-09-27T23:53:58.625Z,9.08
2022-09-27T23:56:31.311Z,10.28
2022-09-27T23:59:04.454Z,12.95
